createdAt,value
2018-03-29T00:00:43.086Z,992.4
2018-03-29T00:01:44.697Z,992.4
2018-03-29T00:02:46.305Z,992.4
2018-03-29T00:03:47.914Z,992.4
2018-03-29T00:04:49.529Z,992.4
2018-03-29T00:05:51.144Z,992.4
2018-03-29T00:06:52.744Z,992.4
2018-03-29T00:07:54.345Z,992.4
2018-03-29T00:08:55.956Z,992.4
2018-03-29T00:09:57.570Z,992.4
2018-03-29T00:10:59.176Z,992.4
2018-03-29T00:12:00.785Z,992.4
2018-03-29T00:13:02.391Z,992.4
2018-03-29T00:14:03.994Z,992.4
2018-03-29T00:15:05.626Z,992.5
2018-03-29T00:16:07.208Z,992.5
2018-03-29T00:17:08.810Z,992.5
2018-03-29T00:18:10.415Z,992.5
2018-03-29T00:19:12.025Z,992.5
2018-03-29T00:20:13.644Z,992.4
2018-03-29T00:21:15.248Z,992.5
2018-03-29T00:22:16.851Z,992.5
2018-03-29T00:23:18.458Z,992.4
2018-03-29T00:24:20.073Z,992.5
2018-03-29T00:25:21.726Z,992.5
2018-03-29T00:26:23.275Z,992.5
2018-03-29T00:27:24.880Z,992.5
2018-03-29T00:28:26.486Z,992.5
2018-03-29T00:29:28.087Z,992.5
2018-03-29T00:30:29.718Z,992.5
2018-03-29T00:31:31.319Z,992.5
2018-03-29T00:32:32.926Z,992.5
2018-03-29T00:33:34.526Z,992.5
2018-03-29T00:34:36.127Z,992.5
2018-03-29T00:35:37.735Z,992.5
2018-03-29T00:36:39.339Z,992.5
2018-03-29T00:37:40.943Z,992.5
2018-03-29T00:38:42.550Z,992.5
2018-03-29T00:39:44.170Z,992.5
2018-03-29T00:40:45.800Z,992.5
2018-03-29T00:41:47.401Z,992.5
2018-03-29T00:42:49.014Z,992.5
2018-03-29T00:43:50.614Z,992.5
2018-03-29T00:44:52.222Z,992.5
2018-03-29T00:45:53.825Z,992.5
2018-03-29T00:46:55.434Z,992.6
2018-03-29T00:47:57.034Z,992.6
2018-03-29T00:48:59.598Z,992.5
2018-03-29T00:50:01.199Z,992.6
2018-03-29T00:51:02.809Z,992.6
2018-03-29T00:52:04.417Z,992.6
2018-03-29T00:53:06.020Z,992.6
2018-03-29T00:54:07.655Z,992.5
2018-03-29T00:55:09.254Z,992.6
2018-03-29T00:56:10.853Z,992.6
2018-03-29T00:57:12.459Z,992.6
2018-03-29T00:58:14.064Z,992.6
2018-03-29T00:59:15.704Z,992.7
2018-03-29T01:00:17.316Z,992.8
2018-03-29T01:01:18.920Z,992.8
2018-03-29T01:02:20.524Z,992.8
2018-03-29T01:03:22.132Z,992.8
2018-03-29T01:04:23.730Z,992.8
2018-03-29T01:05:25.336Z,992.8
2018-03-29T01:06:26.938Z,992.8
2018-03-29T01:07:28.548Z,992.9
2018-03-29T01:08:30.154Z,992.9
2018-03-29T01:09:31.762Z,993.0
2018-03-29T01:10:33.363Z,993.0
2018-03-29T01:11:34.969Z,993.0
2018-03-29T01:12:36.579Z,992.9
2018-03-29T01:13:38.188Z,993.0
2018-03-29T01:14:39.790Z,993.0
2018-03-29T01:15:41.401Z,992.9
2018-03-29T01:16:43.004Z,993.0
2018-03-29T01:17:44.608Z,993.1
2018-03-29T01:18:46.214Z,993.0
2018-03-29T01:19:47.817Z,993.0
2018-03-29T01:20:49.425Z,993.0
2018-03-29T01:21:51.030Z,993.0
2018-03-29T01:22:52.638Z,993.1
2018-03-29T01:23:54.238Z,993.1
2018-03-29T01:24:55.843Z,993.1
2018-03-29T01:25:57.444Z,993.2
2018-03-29T01:26:59.069Z,993.2
2018-03-29T01:28:00.671Z,993.1
2018-03-29T01:29:02.278Z,993.1
2018-03-29T01:30:03.882Z,993.1
2018-03-29T01:31:05.494Z,993.1
2018-03-29T01:32:07.098Z,993.1
2018-03-29T01:33:08.707Z,993.1
2018-03-29T01:34:10.320Z,993.2
2018-03-29T01:35:11.926Z,993.1
2018-03-29T01:36:13.532Z,993.2
2018-03-29T01:37:15.138Z,993.2
2018-03-29T01:38:16.761Z,993.1
2018-03-29T01:39:18.352Z,993.2
2018-03-29T01:40:19.962Z,993.2
2018-03-29T01:41:21.573Z,993.2
2018-03-29T01:42:23.181Z,993.3
2018-03-29T01:43:24.787Z,993.3
2018-03-29T01:44:26.386Z,993.3
2018-03-29T01:45:27.993Z,993.3
2018-03-29T01:46:29.599Z,993.3
2018-03-29T01:47:31.199Z,993.3
2018-03-29T01:48:32.804Z,993.4
2018-03-29T01:49:34.412Z,993.3
2018-03-29T01:50:36.018Z,993.3
2018-03-29T01:51:37.623Z,993.3
2018-03-29T01:52:39.225Z,993.3
2018-03-29T01:53:41.524Z,993.3
2018-03-29T01:54:43.159Z,993.4
2018-03-29T01:55:44.790Z,993.4
2018-03-29T01:56:46.397Z,993.3
2018-03-29T01:57:48.032Z,993.3
2018-03-29T01:58:49.633Z,993.4
2018-03-29T01:59:51.241Z,993.4
2018-03-29T02:00:52.846Z,993.4
2018-03-29T02:01:54.449Z,993.4
2018-03-29T02:02:56.055Z,993.4
2018-03-29T02:03:57.662Z,993.4
2018-03-29T02:04:59.263Z,993.4
2018-03-29T02:06:00.869Z,993.5
2018-03-29T02:07:02.470Z,993.5
2018-03-29T02:08:04.081Z,993.5
2018-03-29T02:09:05.686Z,993.5
2018-03-29T02:10:07.288Z,993.5
2018-03-29T02:11:08.896Z,993.5
2018-03-29T02:12:10.499Z,993.5
2018-03-29T02:13:12.108Z,993.4
2018-03-29T02:14:13.707Z,993.5
2018-03-29T02:15:15.312Z,993.5
2018-03-29T02:16:16.919Z,993.5
2018-03-29T02:17:18.534Z,993.5
2018-03-29T02:18:20.204Z,993.5
2018-03-29T02:19:21.781Z,993.5
2018-03-29T02:20:23.383Z,993.5
2018-03-29T02:21:24.992Z,993.5
2018-03-29T02:22:26.595Z,993.6
2018-03-29T02:23:28.194Z,993.5
2018-03-29T02:24:29.802Z,993.5
2018-03-29T02:25:31.403Z,993.6
2018-03-29T02:26:33.015Z,993.5
2018-03-29T02:27:34.622Z,993.5
2018-03-29T02:28:36.224Z,993.5
2018-03-29T02:29:37.830Z,993.5
2018-03-29T02:30:39.435Z,993.5
2018-03-29T02:31:41.035Z,993.6
2018-03-29T02:32:42.638Z,993.6
2018-03-29T02:33:44.249Z,993.6
2018-03-29T02:34:45.859Z,993.6
2018-03-29T02:35:47.451Z,993.6
2018-03-29T02:36:49.058Z,993.7
2018-03-29T02:37:50.666Z,993.6
2018-03-29T02:38:52.276Z,993.6
2018-03-29T02:39:53.882Z,993.6
2018-03-29T02:40:55.490Z,993.6
2018-03-29T02:41:57.093Z,993.6
2018-03-29T02:42:58.699Z,993.6
2018-03-29T02:44:00.300Z,993.6
2018-03-29T02:45:01.909Z,993.6
2018-03-29T02:46:03.506Z,993.6
2018-03-29T02:47:05.118Z,993.6
2018-03-29T02:48:06.726Z,993.7
2018-03-29T02:49:08.331Z,993.7
2018-03-29T02:50:09.930Z,993.7
2018-03-29T02:51:11.545Z,993.7
2018-03-29T02:52:13.175Z,993.7
2018-03-29T02:53:14.787Z,993.7
2018-03-29T02:54:16.421Z,993.8
2018-03-29T02:55:18.050Z,993.8
2018-03-29T02:56:19.693Z,993.9
2018-03-29T02:57:21.281Z,993.8
2018-03-29T02:58:22.943Z,993.9
2018-03-29T02:59:24.491Z,993.8
2018-03-29T03:00:26.097Z,993.9
2018-03-29T03:01:27.702Z,993.8
2018-03-29T03:02:29.315Z,993.9
2018-03-29T03:03:30.920Z,993.9
2018-03-29T03:04:32.524Z,993.9
2018-03-29T03:05:34.162Z,993.9
2018-03-29T03:06:35.765Z,993.9
2018-03-29T03:07:37.376Z,993.9
2018-03-29T03:08:38.983Z,993.9
2018-03-29T03:09:40.589Z,994.0
2018-03-29T03:10:42.193Z,994.0
2018-03-29T03:11:43.791Z,994.0
2018-03-29T03:12:45.447Z,994.0
2018-03-29T03:13:47.002Z,994.0
2018-03-29T03:14:48.608Z,994.0
2018-03-29T03:15:50.210Z,994.0
2018-03-29T03:16:51.818Z,994.0
2018-03-29T03:17:53.422Z,994.0
2018-03-29T03:18:55.022Z,993.9
2018-03-29T03:19:56.630Z,994.0
2018-03-29T03:20:58.235Z,994.0
2018-03-29T03:21:59.842Z,994.0
2018-03-29T03:23:01.451Z,994.0
2018-03-29T03:24:03.051Z,994.0
2018-03-29T03:25:04.661Z,994.0
2018-03-29T03:26:06.258Z,994.0
2018-03-29T03:27:07.867Z,994.1
2018-03-29T03:28:09.475Z,994.1
2018-03-29T03:29:11.089Z,994.1
2018-03-29T03:30:12.703Z,994.1
2018-03-29T03:31:14.309Z,994.1
2018-03-29T03:32:15.935Z,994.1
2018-03-29T03:33:17.544Z,994.1
2018-03-29T03:34:19.146Z,994.1
2018-03-29T03:35:20.743Z,994.2
2018-03-29T03:36:22.354Z,994.1
2018-03-29T03:37:23.955Z,994.1
2018-03-29T03:38:25.562Z,994.1
2018-03-29T03:39:27.172Z,994.1
2018-03-29T03:40:28.769Z,994.1
2018-03-29T03:41:30.371Z,994.2
2018-03-29T03:42:31.978Z,994.1
2018-03-29T03:43:33.586Z,994.2
2018-03-29T03:44:35.191Z,994.2
2018-03-29T03:45:36.799Z,994.2
2018-03-29T03:46:38.406Z,994.2
2018-03-29T03:47:40.009Z,994.2
2018-03-29T03:48:41.614Z,994.2
2018-03-29T03:49:43.218Z,994.2
2018-03-29T03:50:44.826Z,994.2
2018-03-29T03:51:46.446Z,994.2
2018-03-29T03:52:48.073Z,994.2
2018-03-29T03:53:49.689Z,994.2
2018-03-29T03:54:51.293Z,994.2
2018-03-29T03:55:52.907Z,994.2
2018-03-29T03:56:54.509Z,994.2
2018-03-29T03:57:56.114Z,994.2
2018-03-29T03:58:57.718Z,994.2
2018-03-29T03:59:59.321Z,994.2
2018-03-29T04:01:00.930Z,994.2
2018-03-29T04:02:02.531Z,994.2
2018-03-29T04:03:04.134Z,994.3
2018-03-29T04:04:05.735Z,994.3
2018-03-29T04:05:07.339Z,994.2
2018-03-29T04:06:08.954Z,994.1
2018-03-29T04:07:10.561Z,994.2
2018-03-29T04:08:12.171Z,994.1
2018-03-29T04:09:13.770Z,994.0
2018-03-29T04:10:15.376Z,994.0
2018-03-29T04:11:16.983Z,993.9
2018-03-29T04:12:18.594Z,994.0
2018-03-29T04:13:20.196Z,994.0
2018-03-29T04:14:21.808Z,994.0
2018-03-29T04:15:23.408Z,994.0
2018-03-29T04:16:25.010Z,994.1
2018-03-29T04:17:26.611Z,994.1
2018-03-29T04:18:28.219Z,994.1
2018-03-29T04:19:29.855Z,994.2
2018-03-29T04:20:31.458Z,994.1
2018-03-29T04:21:33.098Z,994.1
2018-03-29T04:22:34.709Z,994.2
2018-03-29T04:23:36.315Z,994.2
2018-03-29T04:24:37.916Z,994.2
2018-03-29T04:25:39.522Z,994.2
2018-03-29T04:26:41.122Z,994.1
2018-03-29T04:27:42.732Z,994.2
2018-03-29T04:28:44.332Z,994.2
2018-03-29T04:29:45.943Z,994.1
2018-03-29T04:30:47.541Z,994.1
2018-03-29T04:31:49.150Z,994.2
2018-03-29T04:32:50.756Z,994.2
2018-03-29T04:33:52.361Z,994.2
2018-03-29T04:34:53.961Z,994.2
2018-03-29T04:35:55.566Z,994.2
2018-03-29T04:36:57.175Z,994.2
2018-03-29T04:37:58.773Z,994.2
2018-03-29T04:39:00.375Z,994.2
2018-03-29T04:40:01.980Z,994.2
2018-03-29T04:41:03.593Z,994.2
2018-03-29T04:42:05.193Z,994.2
2018-03-29T04:43:06.812Z,994.2
2018-03-29T04:44:08.427Z,994.2
2018-03-29T04:45:10.028Z,994.2
2018-03-29T04:46:11.643Z,994.2
2018-03-29T04:47:13.245Z,994.2
2018-03-29T04:48:14.852Z,994.2
2018-03-29T04:49:16.521Z,994.2
2018-03-29T04:50:18.064Z,994.3
2018-03-29T04:51:19.672Z,994.2
2018-03-29T04:52:21.278Z,994.3
2018-03-29T04:53:22.878Z,994.3
2018-03-29T04:54:24.483Z,994.3
2018-03-29T04:55:26.100Z,994.3
2018-03-29T04:56:27.713Z,994.3
2018-03-29T04:57:29.324Z,994.4
2018-03-29T04:58:30.925Z,994.4
2018-03-29T04:59:32.532Z,994.3
2018-03-29T05:00:34.148Z,994.4
2018-03-29T05:01:35.751Z,994.4
2018-03-29T05:02:37.359Z,994.3
2018-03-29T05:03:38.966Z,994.4
2018-03-29T05:04:40.575Z,994.4
2018-03-29T05:05:42.179Z,994.5
2018-03-29T05:06:43.788Z,994.5
2018-03-29T05:07:45.403Z,994.5
2018-03-29T05:08:46.998Z,994.5
2018-03-29T05:09:48.605Z,994.4
2018-03-29T05:10:50.219Z,994.5
2018-03-29T05:11:51.847Z,994.4
2018-03-29T05:12:53.453Z,994.4
2018-03-29T05:13:55.068Z,994.5
2018-03-29T05:14:56.676Z,994.5
2018-03-29T05:15:58.288Z,994.4
2018-03-29T05:16:59.887Z,994.4
2018-03-29T05:18:01.492Z,994.5
2018-03-29T05:19:03.105Z,994.5
2018-03-29T05:20:04.719Z,994.4
2018-03-29T05:21:06.320Z,994.5
2018-03-29T05:22:07.930Z,994.5
2018-03-29T05:23:09.532Z,994.5
2018-03-29T05:24:11.142Z,994.5
2018-03-29T05:25:12.751Z,994.6
2018-03-29T05:26:14.358Z,994.6
2018-03-29T05:27:15.973Z,994.6
2018-03-29T05:28:17.579Z,994.6
2018-03-29T05:29:19.190Z,994.6
2018-03-29T05:30:20.910Z,994.6
2018-03-29T05:31:22.519Z,994.6
2018-03-29T05:32:24.139Z,994.6
2018-03-29T05:33:25.757Z,994.6
2018-03-29T05:34:27.378Z,994.6
2018-03-29T05:35:28.994Z,994.6
2018-03-29T05:36:30.601Z,994.5
2018-03-29T05:37:32.211Z,994.5
2018-03-29T05:38:33.824Z,994.6
2018-03-29T05:39:35.438Z,994.5
2018-03-29T05:40:37.044Z,994.5
2018-03-29T05:41:38.651Z,994.6
2018-03-29T05:42:40.260Z,994.5
2018-03-29T05:43:41.863Z,994.5
2018-03-29T05:44:43.467Z,994.5
2018-03-29T05:45:45.080Z,994.5
2018-03-29T05:46:46.693Z,994.5
2018-03-29T05:47:48.301Z,994.5
2018-03-29T05:48:49.918Z,994.5
2018-03-29T05:49:51.525Z,994.5
2018-03-29T05:50:53.133Z,994.5
2018-03-29T05:51:54.744Z,994.5
2018-03-29T05:52:56.355Z,994.5
2018-03-29T05:53:58.021Z,994.5
2018-03-29T05:54:59.581Z,994.5
2018-03-29T05:56:01.196Z,994.5
2018-03-29T05:57:02.807Z,994.5
2018-03-29T05:58:04.419Z,994.6
2018-03-29T05:59:06.049Z,994.5
2018-03-29T06:00:07.659Z,994.5
2018-03-29T06:01:09.275Z,994.6
2018-03-29T06:02:10.882Z,994.5
2018-03-29T06:03:12.518Z,994.5
2018-03-29T06:04:14.113Z,994.6
2018-03-29T06:05:15.721Z,994.6
2018-03-29T06:06:17.326Z,994.6
2018-03-29T06:07:18.938Z,994.6
2018-03-29T06:08:20.548Z,994.5
2018-03-29T06:09:22.168Z,994.6
2018-03-29T06:10:23.772Z,994.5
2018-03-29T06:11:25.379Z,994.6
2018-03-29T06:12:26.994Z,994.6
2018-03-29T06:13:28.603Z,994.6
2018-03-29T06:14:30.218Z,994.7
2018-03-29T06:15:31.827Z,994.6
2018-03-29T06:16:33.442Z,994.6
2018-03-29T06:17:35.054Z,994.7
2018-03-29T06:18:36.660Z,994.6
2018-03-29T06:19:38.278Z,994.7
2018-03-29T06:20:39.890Z,994.7
2018-03-29T06:21:41.520Z,994.7
2018-03-29T06:22:43.143Z,994.7
2018-03-29T06:23:44.768Z,994.7
2018-03-29T06:24:46.377Z,994.7
2018-03-29T06:25:47.987Z,994.7
2018-03-29T06:26:49.600Z,994.7
2018-03-29T06:27:51.207Z,994.7
2018-03-29T06:28:52.823Z,994.7
2018-03-29T06:29:54.433Z,994.7
2018-03-29T06:30:56.049Z,994.8
2018-03-29T06:31:57.659Z,994.7
2018-03-29T06:32:59.272Z,994.7
2018-03-29T06:34:00.885Z,994.7
2018-03-29T06:35:02.496Z,994.7
2018-03-29T06:36:04.106Z,994.7
2018-03-29T06:37:05.721Z,994.7
2018-03-29T06:38:07.331Z,994.8
2018-03-29T06:39:08.954Z,994.8
2018-03-29T06:40:10.558Z,994.7
2018-03-29T06:41:12.169Z,994.7
2018-03-29T06:42:13.782Z,994.7
2018-03-29T06:43:15.393Z,994.6
2018-03-29T06:44:17.007Z,994.7
2018-03-29T06:45:18.625Z,994.7
2018-03-29T06:46:20.244Z,994.7
2018-03-29T06:47:21.856Z,994.7
2018-03-29T06:48:23.507Z,994.7
2018-03-29T06:49:25.087Z,994.7
2018-03-29T06:50:26.704Z,994.6
2018-03-29T06:51:28.305Z,994.7
2018-03-29T06:52:30.405Z,994.7
2018-03-29T06:53:32.024Z,994.7
2018-03-29T06:54:33.632Z,994.7
2018-03-29T06:55:35.247Z,994.7
2018-03-29T06:56:36.861Z,994.8
2018-03-29T06:57:38.469Z,994.7
2018-03-29T06:58:40.100Z,994.8
2018-03-29T06:59:41.720Z,994.8
2018-03-29T07:00:43.356Z,994.8
2018-03-29T07:01:44.961Z,994.8
2018-03-29T07:02:46.608Z,994.8
2018-03-29T07:03:48.221Z,994.8
2018-03-29T07:04:49.836Z,994.8
2018-03-29T07:05:51.446Z,994.8
2018-03-29T07:06:53.064Z,994.8
2018-03-29T07:07:54.676Z,994.8
2018-03-29T07:08:56.291Z,994.8
2018-03-29T07:09:57.896Z,994.8
2018-03-29T07:10:59.506Z,994.8
2018-03-29T07:12:01.153Z,994.8
2018-03-29T07:13:02.780Z,994.7
2018-03-29T07:14:04.409Z,994.7
2018-03-29T07:15:06.039Z,994.7
2018-03-29T07:16:07.699Z,994.7
2018-03-29T07:17:09.305Z,994.8
2018-03-29T07:18:10.923Z,994.8
2018-03-29T07:19:12.531Z,994.7
2018-03-29T07:20:14.147Z,994.8
2018-03-29T07:21:15.758Z,994.8
2018-03-29T07:22:18.129Z,994.8
2018-03-29T07:23:19.743Z,994.8
2018-03-29T07:24:21.350Z,994.8
2018-03-29T07:25:22.958Z,994.7
2018-03-29T07:28:54.752Z,994.8
2018-03-29T07:29:56.442Z,994.8
2018-03-29T07:31:48.092Z,994.9
2018-03-29T07:32:49.703Z,994.9
2018-03-29T07:34:41.406Z,994.9
2018-03-29T07:35:43.025Z,994.9
2018-03-29T07:37:34.706Z,994.9
2018-03-29T07:38:36.321Z,994.9
2018-03-29T07:40:28.033Z,994.9
2018-03-29T07:41:29.647Z,994.9
2018-03-29T07:43:21.332Z,994.9
2018-03-29T07:44:22.949Z,995.0
2018-03-29T07:46:14.663Z,995.0
2018-03-29T07:47:16.268Z,995.0
2018-03-29T07:49:07.967Z,995.0
2018-03-29T07:50:09.577Z,995.0
2018-03-29T07:52:01.291Z,995.0
2018-03-29T07:53:02.900Z,995.1
2018-03-29T07:54:54.588Z,995.1
2018-03-29T07:55:56.204Z,995.1
2018-03-29T07:57:48.524Z,995.1
2018-03-29T07:58:50.170Z,995.1
2018-03-29T07:59:51.948Z,995.2
2018-03-29T08:00:53.782Z,995.2
2018-03-29T08:01:55.417Z,995.2
2018-03-29T08:02:57.053Z,995.2
2018-03-29T08:03:58.681Z,995.3
2018-03-29T08:05:00.292Z,995.2
2018-03-29T08:06:02.882Z,995.2
2018-03-29T08:07:04.491Z,995.3
2018-03-29T08:08:06.100Z,995.3
2018-03-29T08:09:07.732Z,995.3
2018-03-29T08:10:09.405Z,995.4
2018-03-29T08:11:11.020Z,995.4
2018-03-29T08:12:12.638Z,995.4
2018-03-29T08:13:14.255Z,995.4
2018-03-29T08:14:15.900Z,995.4
2018-03-29T08:15:17.512Z,995.5
2018-03-29T08:16:19.132Z,995.5
2018-03-29T08:17:20.754Z,995.4
2018-03-29T08:18:22.351Z,995.5
2018-03-29T08:19:23.970Z,995.5
2018-03-29T08:20:25.579Z,995.4
2018-03-29T08:21:27.196Z,995.4
2018-03-29T08:22:28.808Z,995.5
2018-03-29T08:23:30.419Z,995.5
2018-03-29T08:24:32.035Z,995.5
2018-03-29T08:25:33.645Z,995.5
2018-03-29T08:26:35.264Z,995.5
2018-03-29T08:27:36.880Z,995.5
2018-03-29T08:28:38.494Z,995.6
2018-03-29T08:29:40.107Z,995.5
2018-03-29T08:30:41.723Z,995.5
2018-03-29T08:31:43.334Z,995.6
2018-03-29T08:32:44.947Z,995.5
2018-03-29T08:33:46.563Z,995.6
2018-03-29T08:34:48.185Z,995.5
2018-03-29T08:35:49.819Z,995.5
2018-03-29T08:36:51.445Z,995.5
2018-03-29T08:37:53.082Z,995.5
2018-03-29T08:38:54.694Z,995.6
2018-03-29T08:39:56.313Z,995.5
2018-03-29T08:40:57.928Z,995.6
2018-03-29T08:41:59.534Z,995.5
2018-03-29T08:43:01.147Z,995.5
2018-03-29T08:44:02.764Z,995.6
2018-03-29T08:45:04.371Z,995.5
2018-03-29T08:46:05.988Z,995.6
2018-03-29T08:47:07.598Z,995.5
2018-03-29T08:48:09.283Z,995.5
2018-03-29T08:49:10.850Z,995.5
2018-03-29T08:50:12.482Z,995.6
2018-03-29T08:51:14.146Z,995.6
2018-03-29T08:52:15.755Z,995.6
2018-03-29T08:53:17.372Z,995.6
2018-03-29T08:54:18.999Z,995.6
2018-03-29T08:55:20.618Z,995.6
2018-03-29T08:56:22.245Z,995.6
2018-03-29T08:57:23.854Z,995.6
2018-03-29T08:58:25.473Z,995.6
2018-03-29T08:59:27.099Z,995.6
2018-03-29T09:00:28.723Z,995.6
2018-03-29T09:01:30.337Z,995.6
2018-03-29T09:02:31.957Z,995.6
2018-03-29T09:03:33.567Z,995.6
2018-03-29T09:04:35.177Z,995.6
2018-03-29T09:05:36.790Z,995.7
2018-03-29T09:06:38.402Z,995.6
2018-03-29T09:07:40.014Z,995.6
2018-03-29T09:08:41.641Z,995.7
2018-03-29T09:09:43.253Z,995.6
2018-03-29T09:10:44.861Z,995.6
2018-03-29T09:11:46.478Z,995.6
2018-03-29T09:12:48.084Z,995.7
2018-03-29T09:13:49.707Z,995.6
2018-03-29T09:14:51.318Z,995.7
2018-03-29T09:15:52.929Z,995.7
2018-03-29T09:16:54.547Z,995.7
2018-03-29T09:17:56.155Z,995.7
2018-03-29T09:18:57.797Z,995.7
2018-03-29T09:19:59.397Z,995.7
2018-03-29T09:21:01.064Z,995.7
2018-03-29T09:22:02.671Z,995.7
2018-03-29T09:23:04.300Z,995.7
2018-03-29T09:24:05.915Z,995.7
2018-03-29T09:25:07.529Z,995.8
2018-03-29T09:26:09.136Z,995.7
2018-03-29T09:27:10.769Z,995.7
2018-03-29T09:28:12.370Z,995.8
2018-03-29T09:29:14.231Z,995.8
2018-03-29T09:30:15.772Z,995.8
2018-03-29T09:31:17.394Z,995.8
2018-03-29T09:32:19.003Z,995.8
2018-03-29T09:33:20.618Z,995.8
2018-03-29T09:34:22.232Z,995.8
2018-03-29T09:35:23.858Z,995.8
2018-03-29T09:36:25.477Z,995.8
2018-03-29T09:37:27.085Z,995.8
2018-03-29T09:38:28.715Z,995.8
2018-03-29T09:39:30.323Z,995.8
2018-03-29T09:40:31.939Z,995.9
2018-03-29T09:41:33.625Z,995.8
2018-03-29T09:42:35.226Z,995.9
2018-03-29T09:43:36.837Z,995.9
2018-03-29T09:44:38.471Z,995.9
2018-03-29T09:45:40.087Z,995.9
2018-03-29T09:46:41.731Z,996.0
2018-03-29T09:47:43.656Z,996.0
2018-03-29T09:48:45.246Z,996.0
2018-03-29T09:49:49.930Z,995.9
2018-03-29T09:50:51.575Z,995.9
2018-03-29T09:51:53.199Z,995.9
2018-03-29T09:52:55.886Z,995.9
2018-03-29T09:53:57.497Z,995.9
2018-03-29T09:54:59.111Z,995.9
2018-03-29T09:56:00.788Z,996.0
2018-03-29T09:57:02.400Z,995.9
2018-03-29T09:58:04.020Z,995.9
2018-03-29T09:59:05.633Z,995.9
2018-03-29T10:00:08.048Z,995.9
2018-03-29T10:01:09.685Z,995.9
2018-03-29T10:02:11.279Z,996.0
2018-03-29T10:03:14.399Z,996.0
2018-03-29T10:04:16.009Z,995.9
2018-03-29T10:05:17.621Z,995.9
2018-03-29T10:06:19.752Z,995.8
2018-03-29T10:07:21.373Z,995.8
2018-03-29T10:08:22.989Z,995.9
2018-03-29T10:09:24.602Z,995.9
2018-03-29T10:10:26.217Z,995.9
2018-03-29T10:11:27.849Z,995.9
2018-03-29T10:12:29.466Z,995.9
2018-03-29T10:13:31.083Z,995.9
2018-03-29T10:14:32.703Z,995.9
2018-03-29T10:15:34.313Z,996.0
2018-03-29T10:16:35.934Z,996.0
2018-03-29T10:17:37.571Z,996.0
2018-03-29T10:18:39.214Z,996.1
2018-03-29T10:19:40.832Z,996.0
2018-03-29T10:20:42.454Z,996.1
2018-03-29T10:21:44.068Z,996.1
2018-03-29T10:22:45.683Z,996.0
2018-03-29T10:23:47.298Z,996.1
2018-03-29T10:24:48.920Z,996.0
2018-03-29T10:25:50.539Z,996.0
2018-03-29T10:26:52.157Z,996.0
2018-03-29T10:27:53.775Z,996.0
2018-03-29T10:28:55.451Z,996.0
2018-03-29T10:29:57.099Z,996.0
2018-03-29T10:30:58.733Z,996.0
2018-03-29T10:32:00.357Z,996.0
2018-03-29T10:33:01.992Z,996.0
2018-03-29T10:34:03.631Z,996.0
2018-03-29T10:35:05.253Z,995.9
2018-03-29T10:36:06.870Z,996.1
2018-03-29T10:37:08.491Z,996.0
2018-03-29T10:38:10.120Z,996.1
2018-03-29T10:39:11.739Z,996.1
2018-03-29T10:40:13.941Z,996.2
2018-03-29T10:41:15.565Z,996.1
2018-03-29T10:42:17.191Z,996.1
2018-03-29T10:43:18.808Z,996.0
2018-03-29T10:44:20.442Z,996.0
2018-03-29T10:45:22.070Z,996.0
2018-03-29T10:46:23.693Z,995.9
2018-03-29T10:47:25.319Z,995.9
2018-03-29T10:48:26.946Z,995.8
2018-03-29T10:49:28.570Z,995.8
2018-03-29T10:50:30.199Z,995.8
2018-03-29T10:51:31.821Z,995.7
2018-03-29T10:52:33.493Z,995.7
2018-03-29T10:53:35.062Z,995.8
2018-03-29T10:54:36.690Z,995.8
2018-03-29T10:55:38.309Z,995.8
2018-03-29T10:56:39.936Z,995.9
2018-03-29T10:57:41.558Z,995.9
2018-03-29T10:58:43.184Z,996.0
2018-03-29T10:59:44.805Z,996.0
2018-03-29T11:00:46.436Z,996.0
2018-03-29T11:01:48.057Z,996.0
2018-03-29T11:02:49.688Z,996.1
2018-03-29T11:03:51.314Z,996.1
2018-03-29T11:04:52.945Z,996.1
2018-03-29T11:05:54.571Z,996.2
2018-03-29T11:06:56.201Z,996.1
2018-03-29T11:07:57.828Z,996.0
2018-03-29T11:08:59.459Z,996.1
2018-03-29T11:10:01.088Z,996.0
2018-03-29T11:11:02.717Z,996.1
2018-03-29T11:12:04.349Z,996.0
2018-03-29T11:13:05.988Z,996.0
2018-03-29T11:14:07.614Z,996.0
2018-03-29T11:15:09.299Z,996.0
2018-03-29T11:16:10.933Z,995.9
2018-03-29T11:17:12.567Z,995.9
2018-03-29T11:18:14.191Z,995.8
2018-03-29T11:19:15.820Z,995.8
2018-03-29T11:20:17.443Z,995.8
2018-03-29T11:21:19.071Z,995.8
2018-03-29T11:22:20.693Z,995.9
2018-03-29T11:23:22.323Z,995.9
2018-03-29T11:24:23.944Z,996.0
2018-03-29T11:25:25.573Z,996.0
2018-03-29T11:26:27.194Z,996.1
2018-03-29T11:27:28.819Z,996.1
2018-03-29T11:28:30.440Z,995.9
2018-03-29T11:29:32.064Z,996.0
2018-03-29T11:30:33.687Z,996.0
2018-03-29T11:31:35.315Z,995.9
2018-03-29T11:32:36.942Z,996.0
2018-03-29T11:33:38.570Z,995.9
2018-03-29T11:34:40.189Z,995.9
2018-03-29T11:35:41.815Z,996.0
2018-03-29T11:36:43.445Z,996.0
2018-03-29T11:37:45.068Z,996.1
2018-03-29T11:38:46.736Z,996.0
2018-03-29T11:39:48.321Z,995.9
2018-03-29T11:40:49.967Z,995.9
2018-03-29T11:41:51.576Z,995.9
2018-03-29T11:42:53.197Z,995.9
2018-03-29T11:43:54.823Z,996.1
2018-03-29T11:44:56.457Z,996.0
2018-03-29T11:45:58.609Z,996.1
2018-03-29T11:47:00.238Z,996.1
2018-03-29T11:48:01.867Z,996.0
2018-03-29T11:49:03.491Z,995.9
2018-03-29T11:50:05.118Z,995.9
2018-03-29T11:51:06.743Z,996.0
2018-03-29T11:52:08.378Z,996.0
2018-03-29T11:53:10.011Z,996.1
2018-03-29T11:54:11.645Z,996.0
2018-03-29T11:55:13.270Z,996.1
2018-03-29T11:56:14.898Z,996.1
2018-03-29T11:57:16.529Z,996.0
2018-03-29T11:58:18.156Z,996.0
2018-03-29T11:59:19.787Z,996.0
2018-03-29T12:00:21.421Z,996.0
2018-03-29T12:01:23.052Z,996.0
2018-03-29T12:02:24.682Z,995.9
2018-03-29T12:03:26.307Z,996.0
2018-03-29T12:04:28.950Z,996.2
2018-03-29T12:05:30.581Z,996.0
2018-03-29T12:06:32.214Z,996.0
2018-03-29T12:07:33.841Z,996.1
2018-03-29T12:08:35.469Z,996.0
2018-03-29T12:09:38.739Z,996.0
2018-03-29T12:10:40.367Z,995.8
2018-03-29T12:11:41.990Z,996.0
2018-03-29T12:12:43.622Z,996.0
2018-03-29T12:13:45.245Z,995.9
2018-03-29T12:14:46.871Z,995.9
2018-03-29T12:15:48.504Z,995.9
2018-03-29T12:16:50.130Z,995.8
2018-03-29T12:17:51.753Z,995.9
2018-03-29T12:18:53.383Z,996.1
2018-03-29T12:19:55.005Z,996.1
2018-03-29T12:20:56.634Z,996.0
2018-03-29T12:21:58.256Z,996.0
2018-03-29T12:22:59.890Z,996.0
2018-03-29T12:24:01.510Z,996.1
2018-03-29T12:25:03.147Z,996.1
2018-03-29T12:26:04.762Z,996.0
2018-03-29T12:27:06.390Z,996.1
2018-03-29T12:28:08.013Z,996.0
2018-03-29T12:29:09.643Z,996.0
2018-03-29T12:30:11.266Z,996.0
2018-03-29T12:31:12.956Z,996.0
2018-03-29T12:32:14.522Z,996.0
2018-03-29T12:33:16.148Z,996.0
2018-03-29T12:34:17.780Z,996.0
2018-03-29T12:35:19.408Z,996.1
2018-03-29T12:36:21.034Z,996.1
2018-03-29T12:37:22.667Z,996.2
2018-03-29T12:38:24.305Z,996.1
2018-03-29T12:39:25.943Z,996.1
2018-03-29T12:40:27.577Z,996.1
2018-03-29T12:41:29.205Z,996.0
2018-03-29T12:42:30.841Z,996.1
2018-03-29T12:43:32.475Z,996.0
2018-03-29T12:44:34.102Z,996.1
2018-03-29T12:45:35.780Z,996.1
2018-03-29T12:46:37.366Z,996.1
2018-03-29T12:47:38.996Z,996.2
2018-03-29T12:48:40.650Z,996.2
2018-03-29T12:49:42.280Z,996.4
2018-03-29T12:50:43.910Z,996.3
2018-03-29T12:51:45.544Z,996.2
2018-03-29T12:52:47.181Z,996.2
2018-03-29T12:53:48.812Z,996.1
2018-03-29T12:54:50.438Z,996.1
2018-03-29T12:55:52.075Z,996.1
2018-03-29T12:56:53.698Z,996.1
2018-03-29T12:57:55.330Z,996.1
2018-03-29T12:58:56.973Z,996.2
2018-03-29T12:59:58.605Z,996.2
2018-03-29T13:01:00.232Z,996.3
2018-03-29T13:02:01.892Z,996.3
2018-03-29T13:03:03.494Z,996.4
2018-03-29T13:04:05.123Z,996.4
2018-03-29T13:05:06.757Z,996.4
2018-03-29T13:06:08.389Z,996.4
2018-03-29T13:07:10.021Z,996.1
2018-03-29T13:08:11.656Z,996.1
2018-03-29T13:09:13.277Z,996.2
2018-03-29T13:10:14.902Z,996.4
2018-03-29T13:11:16.537Z,996.4
2018-03-29T13:12:18.172Z,996.3
2018-03-29T13:13:19.795Z,996.2
2018-03-29T13:14:21.430Z,996.2
2018-03-29T13:15:23.058Z,996.0
2018-03-29T13:16:24.687Z,996.0
2018-03-29T13:17:26.312Z,996.2
2018-03-29T13:18:27.946Z,996.3
2018-03-29T13:19:29.570Z,996.4
2018-03-29T13:20:31.201Z,996.4
2018-03-29T13:21:32.827Z,996.3
2018-03-29T13:22:34.452Z,996.4
2018-03-29T13:23:36.083Z,996.4
2018-03-29T13:24:37.706Z,996.3